createdAt,value
2019-02-25T00:00:03.518Z,14.15
2019-02-25T00:01:03.364Z,13.06
2019-02-25T00:02:02.878Z,13.69
2019-02-25T00:03:03.389Z,14.49
2019-02-25T00:04:03.615Z,14.68
2019-02-25T00:05:03.370Z,13.25
2019-02-25T00:06:02.785Z,11.75
2019-02-25T00:07:03.288Z,15.13
2019-02-25T00:08:03.603Z,12.42
2019-02-25T00:09:03.363Z,21.91
2019-02-25T00:10:03.684Z,11.08
2019-02-25T00:11:03.078Z,13.01
2019-02-25T00:12:03.675Z,12.66
2019-02-25T00:13:03.274Z,13.92
2019-02-25T00:14:02.703Z,12.85
2019-02-25T00:15:03.422Z,9.67
2019-02-25T00:16:03.237Z,9.91
2019-02-25T00:17:03.291Z,12.52
2019-02-25T00:18:02.862Z,12.64
2019-02-25T00:19:03.266Z,12.31
2019-02-25T00:20:03.313Z,9.72
2019-02-25T00:21:03.563Z,16.1
2019-02-25T00:22:03.114Z,17.34
2019-02-25T00:23:03.384Z,10.99
2019-02-25T00:24:02.987Z,12.82
2019-02-25T00:25:03.502Z,16.27
2019-02-25T00:26:02.696Z,12.1
2019-02-25T00:27:03.213Z,12.85
2019-02-25T00:28:03.753Z,11.92
2019-02-25T00:29:03.348Z,10.88
2019-02-25T00:30:02.952Z,11.86
2019-02-25T00:31:03.321Z,12.39
2019-02-25T00:32:03.594Z,12.55
2019-02-25T00:33:03.293Z,12.29
2019-02-25T00:34:03.335Z,14.84
2019-02-25T00:35:03.230Z,14.84
2019-02-25T00:36:03.729Z,13.45
2019-02-25T00:37:03.442Z,13.45
2019-02-25T00:38:03.663Z,13.17
2019-02-25T00:39:03.224Z,13.17
2019-02-25T00:40:02.868Z,14.85
2019-02-25T00:41:02.987Z,15.26
2019-02-25T00:42:03.074Z,12.56
2019-02-25T00:43:02.791Z,10.65
2019-02-25T00:44:03.310Z,12.75
2019-02-25T00:45:03.341Z,14.38
2019-02-25T00:46:02.926Z,14.56
2019-02-25T00:47:03.661Z,12.06
2019-02-25T00:48:03.653Z,12.69
2019-02-25T00:49:02.730Z,13.87
2019-02-25T00:50:03.687Z,13.36
2019-02-25T00:51:02.944Z,16.61
2019-02-25T00:52:03.158Z,12.45
2019-02-25T00:53:03.570Z,16.44
2019-02-25T00:54:03.059Z,14.46
2019-02-25T00:55:03.252Z,13.49
2019-02-25T00:56:02.909Z,15.69
2019-02-25T00:57:03.468Z,16.57
2019-02-25T00:58:03.010Z,12.88
2019-02-25T00:59:02.975Z,12.12
2019-02-25T01:00:03.564Z,14.09
2019-02-25T01:01:03.475Z,16.55
2019-02-25T01:02:03.089Z,15.35
2019-02-25T01:03:03.109Z,14.86
2019-02-25T01:04:02.727Z,14.65
2019-02-25T01:05:03.126Z,13.54
2019-02-25T01:06:03.442Z,13.45
2019-02-25T01:07:03.645Z,15.07
2019-02-25T01:08:03.346Z,12.07
2019-02-25T01:09:03.529Z,13.28
2019-02-25T01:10:03.897Z,13.74
2019-02-25T01:11:02.736Z,12
2019-02-25T01:12:03.141Z,13.41
2019-02-25T01:13:03.284Z,17.59
2019-02-25T01:14:03.091Z,9.27
2019-02-25T01:15:03.512Z,12.85
2019-02-25T01:16:03.506Z,11.91
2019-02-25T01:17:02.980Z,13.26
2019-02-25T01:18:03.400Z,14.32
2019-02-25T01:19:03.614Z,11.87
2019-02-25T01:20:03.011Z,14.45
2019-02-25T01:21:03.145Z,13.35
2019-02-25T01:22:02.712Z,15.25
2019-02-25T01:23:03.089Z,11.07
2019-02-25T01:24:02.557Z,11.07
2019-02-25T01:25:03.050Z,12.01
2019-02-25T01:26:03.467Z,12.01
2019-02-25T01:27:03.089Z,14.67
2019-02-25T01:28:02.933Z,13.19
2019-02-25T01:29:03.036Z,13.19
2019-02-25T01:30:03.177Z,14.51
2019-02-25T01:31:03.615Z,15.56
2019-02-25T01:32:02.748Z,12.19
2019-02-25T01:33:03.469Z,16.94
2019-02-25T01:34:03.760Z,12.94
2019-02-25T01:35:03.295Z,12.74
2019-02-25T01:36:03.511Z,11.04
2019-02-25T01:37:02.511Z,13.52
2019-02-25T01:38:03.017Z,14.72
2019-02-25T01:39:03.624Z,11.58
2019-02-25T01:40:03.084Z,12.43
2019-02-25T01:41:03.214Z,15.66
2019-02-25T01:42:02.761Z,13.66
2019-02-25T01:43:03.208Z,10.36
2019-02-25T01:44:02.873Z,12.36
2019-02-25T01:45:03.098Z,14.46
2019-02-25T01:46:03.359Z,12.81
2019-02-25T01:47:03.533Z,16.1
2019-02-25T01:48:03.338Z,12.36
2019-02-25T01:49:03.486Z,14.47
2019-02-25T01:50:03.237Z,13.11
2019-02-25T01:51:03.401Z,13.86
2019-02-25T01:52:03.058Z,13.57
2019-02-25T01:53:03.435Z,13.66
2019-02-25T01:54:03.725Z,11.21
2019-02-25T01:55:03.441Z,13.04
2019-02-25T01:56:02.565Z,10.86
2019-02-25T01:57:03.210Z,12.72
2019-02-25T01:58:03.449Z,14.26
2019-02-25T01:59:02.763Z,11.56
2019-02-25T02:00:02.965Z,12.62
2019-02-25T02:01:03.217Z,12.76
2019-02-25T02:02:03.024Z,11.64
2019-02-25T02:03:03.042Z,13.19
2019-02-25T02:04:03.118Z,10.71
2019-02-25T02:05:03.280Z,11.46
2019-02-25T02:06:02.831Z,11.16
2019-02-25T02:07:03.394Z,16.05
2019-02-25T02:08:02.766Z,13.35
2019-02-25T02:09:03.563Z,10.85
2019-02-25T02:10:02.812Z,14.86
2019-02-25T02:11:03.274Z,14.58
2019-02-25T02:12:03.588Z,12.89
2019-02-25T02:13:03.381Z,15.15
2019-02-25T02:14:03.304Z,15.15
2019-02-25T02:15:03.649Z,16.26
2019-02-25T02:16:03.027Z,16.26
2019-02-25T02:17:03.010Z,13.42
2019-02-25T02:18:02.762Z,16.68
2019-02-25T02:19:03.290Z,16.68
2019-02-25T02:20:02.841Z,12.88
2019-02-25T02:21:03.326Z,11.95
2019-02-25T02:22:02.894Z,13.32
2019-02-25T02:23:03.392Z,11.02
2019-02-25T02:24:02.958Z,10.45
2019-02-25T02:25:03.294Z,13.05
2019-02-25T02:26:03.663Z,13.38
2019-02-25T02:27:03.060Z,11.21
2019-02-25T02:28:03.340Z,12.61
2019-02-25T02:29:03.363Z,13.39
2019-02-25T02:30:03.354Z,13.94
2019-02-25T02:31:03.709Z,12.52
2019-02-25T02:32:03.254Z,15.34
2019-02-25T02:33:02.525Z,18.59
2019-02-25T02:34:03.483Z,12.57
2019-02-25T02:35:02.622Z,15.78
2019-02-25T02:36:03.402Z,13.18
2019-02-25T02:37:03.615Z,13.8
2019-02-25T02:38:03.316Z,13.49
2019-02-25T02:39:02.939Z,16.33
2019-02-25T02:40:03.461Z,14.02
2019-02-25T02:41:02.676Z,15.31
2019-02-25T02:42:03.357Z,16.19
2019-02-25T02:43:02.954Z,13.59
2019-02-25T02:44:03.319Z,15.84
2019-02-25T02:45:03.659Z,15.48
2019-02-25T02:46:03.039Z,16.11
2019-02-25T02:47:02.732Z,15.24
2019-02-25T02:48:03.158Z,17.31
2019-02-25T02:49:03.033Z,12.95
2019-02-25T02:50:03.611Z,15.09
2019-02-25T02:51:03.238Z,15.78
2019-02-25T02:52:03.594Z,16.66
2019-02-25T02:53:03.334Z,13.22
2019-02-25T02:54:03.380Z,15.71
2019-02-25T02:55:03.286Z,17.12
2019-02-25T02:56:03.598Z,18.12
2019-02-25T02:57:02.949Z,15.41
2019-02-25T02:58:03.596Z,13.25
2019-02-25T02:59:02.854Z,16.02
2019-02-25T03:00:03.795Z,15.56
2019-02-25T03:01:02.823Z,16.09
2019-02-25T03:02:03.351Z,18.78
2019-02-25T03:03:03.614Z,16.74
2019-02-25T03:04:03.115Z,16.74
2019-02-25T03:05:03.408Z,13.72
2019-02-25T03:06:03.099Z,13.44
2019-02-25T03:07:02.941Z,13.44
2019-02-25T03:08:03.644Z,14.17
2019-02-25T03:09:03.018Z,16.96
2019-02-25T03:10:02.953Z,17.82
2019-02-25T03:11:03.022Z,18.93
2019-02-25T03:12:02.957Z,14.91
2019-02-25T03:13:03.120Z,13.34
2019-02-25T03:14:02.592Z,14.3
2019-02-25T03:15:02.891Z,13.81
2019-02-25T03:16:03.465Z,15.09
2019-02-25T03:17:03.233Z,12.21
2019-02-25T03:18:02.957Z,13.22
2019-02-25T03:19:03.364Z,20.75
2019-02-25T03:20:03.757Z,20.89
2019-02-25T03:21:02.920Z,18.68
2019-02-25T03:22:03.540Z,15.41
2019-02-25T03:23:02.861Z,18.15
2019-02-25T03:24:02.883Z,12.07
2019-02-25T03:25:02.794Z,24.68
2019-02-25T03:26:03.640Z,16.45
2019-02-25T03:27:02.755Z,14.59
2019-02-25T03:28:03.473Z,13.79
2019-02-25T03:29:03.550Z,14.66
2019-02-25T03:30:03.009Z,12.69
2019-02-25T03:31:03.496Z,11.84
2019-02-25T03:32:02.895Z,13.83
2019-02-25T03:33:03.296Z,12.66
2019-02-25T03:34:03.257Z,12.78
2019-02-25T03:35:03.094Z,20.84
2019-02-25T03:36:03.673Z,12.56
2019-02-25T03:37:02.810Z,14.82
2019-02-25T03:38:03.436Z,16.63
2019-02-25T03:39:02.761Z,14.98
2019-02-25T03:40:03.565Z,14.72
2019-02-25T03:41:02.675Z,16.94
2019-02-25T03:42:03.163Z,13.81
2019-02-25T03:43:02.915Z,16.78
2019-02-25T03:44:03.329Z,12.47
2019-02-25T03:45:02.627Z,14.32
2019-02-25T03:46:03.277Z,19.12
2019-02-25T03:47:03.799Z,19.53
2019-02-25T03:48:03.072Z,14.81
2019-02-25T03:49:03.299Z,19.84
2019-02-25T03:50:03.076Z,15.45
2019-02-25T03:51:03.247Z,13.25
2019-02-25T03:52:03.008Z,13.07
2019-02-25T03:53:03.119Z,13.29
2019-02-25T03:54:03.526Z,13.29
2019-02-25T03:55:02.763Z,10.5
2019-02-25T03:56:02.603Z,10.5
2019-02-25T03:57:03.280Z,12.96
2019-02-25T03:58:03.440Z,14.24
2019-02-25T03:59:02.999Z,14.24
2019-02-25T04:00:03.525Z,10.29
2019-02-25T04:01:03.676Z,15.32
2019-02-25T04:02:02.936Z,15.32
2019-02-25T04:03:03.115Z,11.92
2019-02-25T04:04:02.870Z,15.92
2019-02-25T04:05:03.017Z,10.97
2019-02-25T04:06:02.782Z,16.66
2019-02-25T04:07:02.767Z,10.36
2019-02-25T04:08:03.157Z,13.31
2019-02-25T04:09:02.993Z,13.04
2019-02-25T04:10:03.349Z,11.52
2019-02-25T04:11:03.093Z,10.59
2019-02-25T04:12:03.266Z,12.36
2019-02-25T04:13:02.982Z,14.07
2019-02-25T04:14:03.423Z,14.02
2019-02-25T04:15:03.087Z,12.58
2019-02-25T04:16:03.342Z,13.62
2019-02-25T04:17:02.911Z,17.8
2019-02-25T04:18:02.919Z,15.69
2019-02-25T04:19:03.642Z,17.1
2019-02-25T04:20:03.068Z,14.46
2019-02-25T04:21:02.802Z,12.37
2019-02-25T04:22:03.081Z,12.52
2019-02-25T04:23:02.748Z,16.68
2019-02-25T04:24:03.118Z,13.18
2019-02-25T04:25:03.679Z,15.12
2019-02-25T04:26:02.917Z,13.51
2019-02-25T04:27:03.268Z,15.84
2019-02-25T04:28:02.998Z,13.42
2019-02-25T04:29:03.622Z,14.21
2019-02-25T04:30:03.586Z,13.13
2019-02-25T04:31:03.276Z,12.99
2019-02-25T04:32:02.402Z,15.18
2019-02-25T04:33:03.456Z,12.76
2019-02-25T04:34:03.588Z,16.4
2019-02-25T04:35:03.050Z,13.31
2019-02-25T04:36:03.007Z,11.98
2019-02-25T04:37:03.028Z,11.74
2019-02-25T04:38:03.486Z,11.66
2019-02-25T04:39:03.698Z,14.62
2019-02-25T04:40:02.908Z,12.56
2019-02-25T04:41:02.907Z,12.56
2019-02-25T04:42:02.858Z,15.72
2019-02-25T04:43:03.386Z,19.76
2019-02-25T04:44:02.945Z,19.76
2019-02-25T04:45:03.449Z,22.42
2019-02-25T04:46:02.664Z,13.3
2019-02-25T04:47:03.158Z,13.3
2019-02-25T04:48:02.732Z,19.15
2019-02-25T04:49:03.064Z,10.81
2019-02-25T04:50:03.453Z,11.88
2019-02-25T04:51:02.817Z,11.65
2019-02-25T04:52:03.637Z,14.79
2019-02-25T04:53:03.012Z,13.78
2019-02-25T04:54:03.627Z,21.38
2019-02-25T04:55:03.367Z,12.24
2019-02-25T04:56:03.236Z,15.08
2019-02-25T04:57:03.091Z,12.97
2019-02-25T04:58:03.455Z,14.48
2019-02-25T04:59:03.053Z,12.41
2019-02-25T05:00:03.621Z,18.93
2019-02-25T05:01:02.912Z,13.39
2019-02-25T05:02:02.949Z,12.42
2019-02-25T05:03:03.075Z,15.52
2019-02-25T05:04:02.810Z,15.75
2019-02-25T05:05:03.310Z,17.01
2019-02-25T05:06:03.391Z,16.74
2019-02-25T05:07:02.542Z,21.03
2019-02-25T05:08:03.273Z,16.35
2019-02-25T05:09:03.051Z,18.48
2019-02-25T05:10:03.018Z,17.41
2019-02-25T05:11:03.638Z,22.66
2019-02-25T05:12:02.917Z,20.25
2019-02-25T05:13:03.006Z,31.73
2019-02-25T05:14:03.341Z,21.82
2019-02-25T05:15:02.970Z,22.84
2019-02-25T05:16:03.267Z,21.14
2019-02-25T05:17:02.961Z,23.91
2019-02-25T05:18:03.606Z,26.78
2019-02-25T05:19:02.852Z,21.82
2019-02-25T05:20:03.259Z,24.29
2019-02-25T05:21:03.557Z,23.26
2019-02-25T05:22:03.054Z,26.06
2019-02-25T05:23:03.623Z,22.53
2019-02-25T05:24:03.053Z,29.25
2019-02-25T05:25:03.605Z,23.44
2019-02-25T05:26:02.343Z,24.95
2019-02-25T05:27:03.361Z,23.3
2019-02-25T05:28:03.685Z,22.09
2019-02-25T05:29:02.997Z,23.92
2019-02-25T05:30:03.741Z,25.29
2019-02-25T05:31:02.874Z,20.36
2019-02-25T05:32:03.221Z,24.83
2019-02-25T05:33:02.739Z,22.05
2019-02-25T05:34:02.663Z,25.41
2019-02-25T05:35:03.607Z,22.35
2019-02-25T05:36:02.827Z,22.35
2019-02-25T05:37:03.604Z,22.12
2019-02-25T05:38:03.848Z,25.58
2019-02-25T05:39:03.524Z,25.58
2019-02-25T05:40:02.881Z,22.31
2019-02-25T05:41:02.724Z,22.68
2019-02-25T05:42:03.380Z,24.52
2019-02-25T05:43:03.663Z,21.59
2019-02-25T05:44:02.828Z,23.74
2019-02-25T05:45:03.099Z,27.93
2019-02-25T05:46:02.671Z,19.65
2019-02-25T05:47:02.904Z,18.16
2019-02-25T05:48:02.659Z,18.34
2019-02-25T05:49:03.360Z,20.48
2019-02-25T05:50:02.839Z,22.11
2019-02-25T05:51:03.484Z,19.96
2019-02-25T05:52:03.584Z,18.59
2019-02-25T05:53:03.132Z,20.97
2019-02-25T05:54:03.351Z,19.72
2019-02-25T05:55:03.608Z,17.67
2019-02-25T05:56:03.382Z,17.85
2019-02-25T05:57:03.001Z,18.96
2019-02-25T05:58:03.163Z,19.45
2019-02-25T05:59:03.697Z,14.98
2019-02-25T06:00:02.914Z,15.51
2019-02-25T06:01:03.345Z,16.39
2019-02-25T06:02:05.414Z,16.71
2019-02-25T06:03:03.823Z,14.65
2019-02-25T06:04:02.904Z,17.97
2019-02-25T06:05:03.603Z,18.75
2019-02-25T06:06:02.949Z,16.5
2019-02-25T06:07:03.299Z,20.78
2019-02-25T06:08:03.336Z,14.27
2019-02-25T06:09:03.311Z,13.96
2019-02-25T06:10:03.370Z,18.38
2019-02-25T06:11:03.123Z,13.34
2019-02-25T06:12:02.832Z,19.62
2019-02-25T06:13:03.214Z,15.65
2019-02-25T06:14:03.744Z,16.36
2019-02-25T06:15:03.340Z,14.45
2019-02-25T06:16:02.809Z,17
2019-02-25T06:17:03.264Z,14.02
2019-02-25T06:18:02.791Z,14.35
2019-02-25T06:19:03.201Z,17.47
2019-02-25T06:20:02.942Z,17.47
2019-02-25T06:21:03.054Z,15.72
2019-02-25T06:22:03.663Z,15.72
2019-02-25T06:23:03.453Z,19.78
2019-02-25T06:24:03.622Z,13.41
2019-02-25T06:25:03.233Z,16.05
2019-02-25T06:26:03.362Z,17.27
2019-02-25T06:27:03.168Z,17.27
2019-02-25T06:28:03.525Z,19.98
2019-02-25T06:29:02.768Z,15.02
2019-02-25T06:30:03.529Z,15.02
2019-02-25T06:31:03.825Z,17.74
2019-02-25T06:32:02.979Z,14.22
2019-02-25T06:33:02.972Z,16.35
2019-02-25T06:34:03.148Z,13.51
2019-02-25T06:35:03.019Z,18.15
2019-02-25T06:36:03.199Z,14.17
2019-02-25T06:37:03.691Z,13.41
2019-02-25T06:38:03.316Z,17.4
2019-02-25T06:39:03.587Z,16.36
2019-02-25T06:40:03.414Z,19.65
2019-02-25T06:41:03.747Z,12.67
2019-02-25T06:42:03.260Z,16.75
2019-02-25T06:43:03.283Z,16.61
2019-02-25T06:44:03.154Z,16.82
2019-02-25T06:45:03.769Z,16.86
2019-02-25T06:46:03.373Z,13.76
2019-02-25T06:47:03.602Z,16.11
2019-02-25T06:48:03.518Z,19.25
2019-02-25T06:49:03.517Z,22.59
2019-02-25T06:50:03.216Z,21.82
2019-02-25T06:51:03.691Z,23.57
2019-02-25T06:52:03.014Z,16.06
2019-02-25T06:53:03.378Z,16.76
2019-02-25T06:54:02.998Z,22.35
2019-02-25T06:55:03.323Z,18.08
2019-02-25T06:56:02.923Z,19.42
2019-02-25T06:57:03.481Z,17.62
2019-02-25T06:58:02.785Z,20.38
2019-02-25T06:59:03.590Z,23.28
2019-02-25T07:00:03.112Z,25.48
2019-02-25T07:01:03.527Z,18.91
2019-02-25T07:02:02.909Z,20.97
2019-02-25T07:03:03.856Z,23.23
2019-02-25T07:04:03.330Z,19.06
2019-02-25T07:05:03.083Z,21.87
2019-02-25T07:06:03.517Z,20.86
2019-02-25T07:07:02.998Z,22.54
2019-02-25T07:08:03.164Z,21.88
2019-02-25T07:09:02.444Z,20.79
2019-02-25T07:10:02.971Z,19.35
2019-02-25T07:11:03.520Z,19.35
2019-02-25T07:12:03.680Z,24.79
2019-02-25T07:13:03.513Z,24.79
2019-02-25T07:14:03.473Z,19.18
2019-02-25T07:15:03.199Z,19.45
2019-02-25T07:16:03.570Z,17.81
2019-02-25T07:17:03.156Z,19.87
2019-02-25T07:18:03.678Z,18.66
2019-02-25T07:19:03.371Z,15.98
2019-02-25T07:20:03.555Z,18.36
2019-02-25T07:21:03.318Z,18.08
2019-02-25T07:22:02.699Z,19.96
2019-02-25T07:23:03.479Z,18.11
2019-02-25T07:24:02.966Z,17.54
2019-02-25T07:25:03.457Z,13.92
2019-02-25T07:26:03.614Z,17.35
2019-02-25T07:27:03.294Z,14.93
2019-02-25T07:28:02.979Z,16.81
2019-02-25T07:29:03.542Z,22
2019-02-25T07:30:02.728Z,16.55
2019-02-25T07:31:03.142Z,17.81
2019-02-25T07:32:02.907Z,16.38
2019-02-25T07:33:03.455Z,18.36
2019-02-25T07:34:02.894Z,17.24
2019-02-25T07:35:03.236Z,19.8
2019-02-25T07:36:02.914Z,19.06
2019-02-25T07:37:02.874Z,18.78
2019-02-25T07:38:02.675Z,18.96
2019-02-25T07:39:03.033Z,15.97
2019-02-25T07:40:03.862Z,20.83
2019-02-25T07:41:03.201Z,14.55
2019-02-25T07:42:02.698Z,14.26
2019-02-25T07:43:03.353Z,17.29
2019-02-25T07:44:03.097Z,16.25
2019-02-25T07:45:03.049Z,14.32
2019-02-25T07:46:02.909Z,19.36
2019-02-25T07:47:03.311Z,21.45
2019-02-25T07:48:02.784Z,15.28
2019-02-25T07:49:02.988Z,12.91
2019-02-25T07:50:03.344Z,21
2019-02-25T07:51:02.744Z,14.23
2019-02-25T07:52:03.094Z,15.42
2019-02-25T07:53:02.852Z,17.28
2019-02-25T07:54:03.504Z,19.45
2019-02-25T07:55:02.998Z,13.28
2019-02-25T07:56:03.285Z,14.65
2019-02-25T07:57:03.726Z,14.65
2019-02-25T07:58:02.801Z,16.43
2019-02-25T07:59:03.314Z,13.98
2019-02-25T08:00:02.645Z,13.98
2019-02-25T08:01:03.712Z,13.01
2019-02-25T08:02:03.322Z,12.98
2019-02-25T08:03:02.765Z,12.98
2019-02-25T08:04:03.346Z,14.48
2019-02-25T08:05:03.705Z,11.76
2019-02-25T08:06:02.922Z,14.42
2019-02-25T08:07:02.875Z,14.42
2019-02-25T08:08:02.805Z,13.57
2019-02-25T08:09:03.484Z,13.21
2019-02-25T08:10:02.937Z,13.21
2019-02-25T08:11:03.197Z,19.17
2019-02-25T08:12:02.733Z,16.55
2019-02-25T08:13:03.057Z,19.06
2019-02-25T08:14:02.989Z,14.81
2019-02-25T08:15:03.685Z,13.36
2019-02-25T08:16:03.683Z,19.18
2019-02-25T08:17:04.622Z,13.52
2019-02-25T08:18:02.904Z,9.85
2019-02-25T08:19:03.223Z,13.39
2019-02-25T08:20:03.074Z,14.65
2019-02-25T08:21:03.456Z,12.86
2019-02-25T08:22:02.742Z,12.11
2019-02-25T08:23:03.499Z,16.61
2019-02-25T08:24:03.820Z,12.52
2019-02-25T08:25:03.288Z,13.67
2019-02-25T08:26:03.315Z,12.02
2019-02-25T08:27:03.215Z,12.83
2019-02-25T08:28:03.651Z,15.51
2019-02-25T08:29:02.792Z,13.51
2019-02-25T08:30:03.797Z,11.76
2019-02-25T08:31:02.944Z,13.02
2019-02-25T08:32:03.414Z,13.66
2019-02-25T08:33:02.857Z,15.4
2019-02-25T08:34:03.097Z,14.52
2019-02-25T08:35:03.834Z,12.68
2019-02-25T08:36:02.194Z,13.05
2019-02-25T08:37:02.969Z,15.34
2019-02-25T08:38:02.936Z,14.34
2019-02-25T08:39:03.834Z,15.62
2019-02-25T08:40:03.154Z,19.12
2019-02-25T08:41:03.857Z,13.98
2019-02-25T08:42:02.908Z,16.5
2019-02-25T08:43:03.298Z,15.14
2019-02-25T08:44:02.639Z,16.01
2019-02-25T08:45:03.493Z,13.77
2019-02-25T08:46:02.823Z,14.61
2019-02-25T08:47:02.995Z,14.53
2019-02-25T08:48:02.936Z,12.32
2019-02-25T08:49:03.387Z,15
2019-02-25T08:50:03.608Z,16.34
2019-02-25T08:51:03.204Z,16.34
2019-02-25T08:52:02.674Z,15.41
2019-02-25T08:53:03.516Z,15.41
2019-02-25T08:54:03.459Z,11.86
2019-02-25T08:55:03.378Z,16.98
2019-02-25T08:56:03.134Z,10.72
2019-02-25T08:57:03.315Z,15.86
2019-02-25T08:58:03.012Z,11.7
2019-02-25T08:59:03.016Z,15.65
2019-02-25T09:00:03.390Z,12.4
2019-02-25T09:01:03.566Z,10.77
2019-02-25T09:02:03.190Z,12.64
2019-02-25T09:03:02.772Z,12.61
2019-02-25T09:04:02.754Z,13.51
2019-02-25T09:05:02.797Z,9.92
2019-02-25T09:06:03.417Z,12.24
2019-02-25T09:07:02.796Z,15.14
2019-02-25T09:08:02.837Z,15.3
2019-02-25T09:09:03.829Z,18.39
2019-02-25T09:10:03.576Z,12.31
2019-02-25T09:11:02.615Z,13.99
2019-02-25T09:12:02.951Z,11.81
2019-02-25T09:13:03.056Z,10.65
2019-02-25T09:14:03.097Z,13.24
2019-02-25T09:15:03.294Z,17.56
2019-02-25T09:16:03.123Z,12.23
2019-02-25T09:17:03.190Z,11.6
2019-02-25T09:18:02.972Z,21.32
2019-02-25T09:19:02.738Z,11.01
2019-02-25T09:20:03.570Z,9.94
2019-02-25T09:21:03.559Z,10.94
2019-02-25T09:22:03.361Z,15.63
2019-02-25T09:23:02.887Z,13.05
2019-02-25T09:24:03.346Z,12.34
2019-02-25T09:25:03.651Z,15.17
2019-02-25T09:26:02.891Z,15.15
2019-02-25T09:27:03.620Z,12.27
2019-02-25T09:28:02.911Z,12.47
2019-02-25T09:29:03.515Z,16.54
2019-02-25T09:30:03.133Z,15.11
2019-02-25T09:31:05.586Z,15.04
2019-02-25T09:32:03.117Z,12.32
2019-02-25T09:33:03.625Z,14.28
2019-02-25T09:34:03.097Z,15.42
2019-02-25T09:35:03.441Z,15.39
2019-02-25T09:36:03.287Z,13.7
2019-02-25T09:37:03.088Z,11.84
2019-02-25T09:38:03.153Z,20.05
2019-02-25T09:39:03.675Z,13.02
2019-02-25T09:40:03.141Z,12.27
2019-02-25T09:41:03.365Z,12.32
2019-02-25T09:42:03.024Z,12.25
2019-02-25T09:43:03.432Z,14.97
2019-02-25T09:44:03.019Z,14.97
2019-02-25T09:45:03.325Z,14.63
2019-02-25T09:46:02.842Z,11.78
2019-02-25T09:47:05.104Z,11.78
2019-02-25T09:48:02.790Z,11.79
2019-02-25T09:49:03.535Z,12.96
2019-02-25T09:50:03.061Z,11.89
2019-02-25T09:51:03.392Z,11.95
2019-02-25T09:52:02.780Z,13.41
2019-02-25T09:53:03.282Z,13
2019-02-25T09:54:03.204Z,14.8
2019-02-25T09:55:03.461Z,11.06
2019-02-25T09:56:02.963Z,11.91
2019-02-25T09:57:03.475Z,11.69
2019-02-25T09:58:03.030Z,9.16
2019-02-25T09:59:03.314Z,12.12
2019-02-25T10:00:02.909Z,13.95
2019-02-25T10:01:02.859Z,10.57
2019-02-25T10:02:02.937Z,13.52
2019-02-25T10:03:03.188Z,16.76
2019-02-25T10:04:02.988Z,12.2
2019-02-25T10:05:03.829Z,8.5
2019-02-25T10:06:02.980Z,10.97
2019-02-25T10:07:03.540Z,12.51
2019-02-25T10:08:03.253Z,8.31
2019-02-25T10:09:03.370Z,9.75
2019-02-25T10:10:02.961Z,8.98
2019-02-25T10:11:03.288Z,8.29
2019-02-25T10:12:03.062Z,9.73
2019-02-25T10:13:02.002Z,9.64
2019-02-25T10:14:02.725Z,7.41
2019-02-25T10:15:05.067Z,9.49
2019-02-25T10:16:02.706Z,11.76
2019-02-25T10:17:02.934Z,8.43
2019-02-25T10:18:03.612Z,7.55
2019-02-25T10:19:03.260Z,7.59
2019-02-25T10:20:03.625Z,9.26
2019-02-25T10:21:03.382Z,10.08
2019-02-25T10:22:04.076Z,7.76
2019-02-25T10:23:03.240Z,12.17
2019-02-25T10:24:03.497Z,9.17
2019-02-25T10:25:03.224Z,10.03
2019-02-25T10:26:03.518Z,9.91
2019-02-25T10:27:02.634Z,10.44
2019-02-25T10:28:03.571Z,7.13
2019-02-25T10:29:03.061Z,11.1
2019-02-25T10:30:04.097Z,10.36
2019-02-25T10:31:03.331Z,10.64
2019-02-25T10:32:04.694Z,10.64
2019-02-25T10:33:02.763Z,10.68
2019-02-25T10:34:03.799Z,16.12
2019-02-25T10:35:03.834Z,16.12
2019-02-25T10:36:03.288Z,8.35
2019-02-25T10:37:03.705Z,8.24
2019-02-25T10:38:03.261Z,8.24
2019-02-25T10:39:03.427Z,8.14
2019-02-25T10:40:03.416Z,7.15
2019-02-25T10:41:03.047Z,8.74
2019-02-25T10:42:03.659Z,7.92
2019-02-25T10:43:03.836Z,8.26
2019-02-25T10:44:04.694Z,12.76
2019-02-25T10:45:02.993Z,5.3
2019-02-25T10:46:02.959Z,6.51
2019-02-25T10:47:03.399Z,7.53
2019-02-25T10:48:03.036Z,6.51
2019-02-25T10:49:11.009Z,6.74
2019-02-25T10:50:03.208Z,7.57
2019-02-25T10:51:04.843Z,7.35
2019-02-25T10:52:02.899Z,6.62
2019-02-25T10:53:03.829Z,6.74
2019-02-25T10:54:03.456Z,7.28
2019-02-25T10:55:03.044Z,7.8
2019-02-25T10:56:03.489Z,8.47
2019-02-25T10:57:02.820Z,10.7
2019-02-25T10:58:03.755Z,7.75
2019-02-25T10:59:04.357Z,7.04
2019-02-25T11:00:04.948Z,7.4
2019-02-25T11:01:02.707Z,5.98
2019-02-25T11:02:03.126Z,7.17
2019-02-25T11:03:03.001Z,9.22
2019-02-25T11:04:03.161Z,5.87
2019-02-25T11:05:03.723Z,5.59
2019-02-25T11:06:03.407Z,7.71
2019-02-25T11:07:05.476Z,5.39
2019-02-25T11:08:03.607Z,6.41
2019-02-25T11:09:03.398Z,6.36
2019-02-25T11:10:02.839Z,6.49
2019-02-25T11:11:03.489Z,8.74
2019-02-25T11:12:03.723Z,11.81
2019-02-25T11:13:04.287Z,7.13
2019-02-25T11:14:03.370Z,10.14
2019-02-25T11:15:05.058Z,8.73
2019-02-25T11:16:02.864Z,7.69
2019-02-25T11:17:03.044Z,8.34
2019-02-25T11:18:02.786Z,8.34
2019-02-25T11:19:03.163Z,7.78
2019-02-25T11:20:05.557Z,7.78
2019-02-25T11:21:04.153Z,8.65
2019-02-25T11:22:02.817Z,12.3
2019-02-25T11:23:03.068Z,12.3
2019-02-25T11:24:02.797Z,8.97
2019-02-25T11:25:03.268Z,6.32
2019-02-25T11:26:03.645Z,6.32
2019-02-25T11:27:05.163Z,8.05
2019-02-25T11:28:04.871Z,8.95
2019-02-25T11:29:03.183Z,12.44
2019-02-25T11:30:03.730Z,8.31
2019-02-25T11:31:03.454Z,8.98
2019-02-25T11:32:03.414Z,7.75
2019-02-25T11:33:02.972Z,8.51
2019-02-25T11:34:05.275Z,7.83
2019-02-25T11:35:04.052Z,8.55
2019-02-25T11:36:03.217Z,8.1
2019-02-25T11:37:02.826Z,7.16
2019-02-25T11:38:03.020Z,9.31
2019-02-25T11:39:04.522Z,8.08
2019-02-25T11:40:04.364Z,9.83
2019-02-25T11:41:04.643Z,7.58
2019-02-25T11:42:03.861Z,9.84
2019-02-25T11:43:03.639Z,8.15
2019-02-25T11:44:03.799Z,9.64
2019-02-25T11:45:04.448Z,8.52
2019-02-25T11:46:03.040Z,11.79
2019-02-25T11:47:03.089Z,8.36
2019-02-25T11:48:03.620Z,7.78
2019-02-25T11:49:02.937Z,9.94
2019-02-25T11:50:03.371Z,7.71
2019-02-25T11:51:02.858Z,12
2019-02-25T11:52:03.549Z,15.5
2019-02-25T11:53:02.850Z,11.88
2019-02-25T11:54:03.536Z,6.96
2019-02-25T11:55:02.998Z,9.46
2019-02-25T11:56:03.618Z,12.52
2019-02-25T11:57:02.955Z,9.53
2019-02-25T11:58:03.545Z,9.06
2019-02-25T11:59:03.138Z,10.45
2019-02-25T12:00:02.854Z,10.71
2019-02-25T12:01:03.330Z,15.88
2019-02-25T12:02:03.674Z,8.07
2019-02-25T12:03:03.294Z,10.96
2019-02-25T12:04:02.885Z,8.07
2019-02-25T12:05:02.847Z,6.94
2019-02-25T12:06:02.640Z,6.94
2019-02-25T12:07:03.090Z,7.26
2019-02-25T12:08:03.272Z,8.81
2019-02-25T12:09:03.292Z,8.81
2019-02-25T12:10:02.837Z,10.51
2019-02-25T12:11:02.856Z,10.51
2019-02-25T12:12:02.803Z,7.37
2019-02-25T12:13:03.067Z,12.08
2019-02-25T12:14:03.019Z,10.37
2019-02-25T12:15:03.337Z,7.51
2019-02-25T12:16:02.880Z,8.07
2019-02-25T12:17:02.922Z,6.99
2019-02-25T12:18:03.682Z,10.28
2019-02-25T12:19:03.078Z,12.03
2019-02-25T12:20:03.607Z,9.42
2019-02-25T12:21:03.031Z,9.48
2019-02-25T12:22:03.428Z,10.24
2019-02-25T12:23:02.837Z,8.96
2019-02-25T12:24:03.311Z,11.32
2019-02-25T12:25:02.857Z,10.02
2019-02-25T12:26:03.416Z,15.29
2019-02-25T12:27:03.717Z,8.1
2019-02-25T12:28:03.044Z,12.08
2019-02-25T12:29:10.561Z,14.03
2019-02-25T12:30:03.121Z,10.61
2019-02-25T12:31:03.675Z,8.25
2019-02-25T12:32:03.631Z,11.38
2019-02-25T12:33:03.429Z,8.88
2019-02-25T12:34:02.802Z,9.14
2019-02-25T12:35:03.190Z,10.03
2019-02-25T12:36:03.757Z,10.65
2019-02-25T12:37:03.063Z,11.15
2019-02-25T12:38:03.466Z,7.89
2019-02-25T12:39:02.673Z,10.25
2019-02-25T12:40:03.518Z,12.2
2019-02-25T12:41:03.610Z,8.61
2019-02-25T12:42:02.759Z,8.94
2019-02-25T12:43:03.583Z,7.32
2019-02-25T12:44:03.023Z,9.58
2019-02-25T12:45:03.386Z,8.86
2019-02-25T12:46:03.597Z,10.6
2019-02-25T12:47:02.710Z,9.74
2019-02-25T12:48:03.525Z,8.81
2019-02-25T12:49:02.880Z,8.36
2019-02-25T12:50:03.593Z,17.84
2019-02-25T12:51:02.946Z,9.36
2019-02-25T12:52:03.640Z,9.2
2019-02-25T12:53:02.860Z,11.11
2019-02-25T12:54:03.501Z,9.32
2019-02-25T12:55:03.851Z,8.44
2019-02-25T12:56:03.281Z,8.72
2019-02-25T12:57:03.406Z,8.72
2019-02-25T12:58:03.316Z,10.38